SPQT Airport Information

Runway Information
Runway 06 Length 8202 ft width 148 ft
Elevation 306 ft Threshold 0 ft Heading 57
Runway 24 Length 8202 ft Width 148 ft
Elevation 295 ft Threshold 0 ft Heading 237
Airport Frequencies
Type APP Name IQUITOS AP Frequency 124.1 MHZ
Type TWR Name IQUITOS TW Frequency 118.5 MHZ
Airport Navaids
Type NDB Name Iquitos Frequency 335 KHZ
Type VOR-DME Name Iquitos Frequency 116500 KHZ
Airport Weather Information & NOTAM
ADDS - METARS form results

(0850 UTC 24 April 2018)
 
METAR text: SPQT 240800Z 07003KT 9999 VCSH BKN020 FEW030TCU 25/24 Q1012 RMK PP000
Conditions at: SPQT (IQUITOS/SECADA , PE) observed 0800 UTC 24 April 2018
Temperature: 25.0°C (77°F)
Dewpoint: 24.0°C (75°F) [RH = 94%]
Pressure (altimeter): 29.88 inches Hg (1012.0 mb)
Winds: from the ENE (70 degrees) at 3 MPH (3 knots; 1.6 m/s)
Visibility: 6 or more miles (10+ km)
Ceiling: 2000 feet AGL
Clouds: broken clouds at 2000 feet AGL
few clouds at 3000 feet AGL
Weather: VCSH  (showers in vicinity)